Arvada, CO (80005)

6:53 PM MDT on August 30, 2016 (GMT -0600)
Meadowglen | | Change Station

Elev 5554 ft 39.85 °N, 105.11 °W | Updated 2 minutes ago

Mostly Cloudy
Mostly Cloudy
76.3 °F
Feels Like 78 °F
N
1.9
Wind Variable Wind from West
Gusts 3.7 mph

Today
High -- | Low -- °F
--% Chance of Precip.
Yesterday
High -- | Low -- °F
Precip. -- in
Pressure 30.28 in
Visibility 20.0 miles
Clouds Mostly Cloudy 12000 ft
Heat Index 78 °F
Dew Point 52 °F
Humidity 43%
Rainfall Not available.
Snow Depth Not available.
6:27 AM 7:34 PM
Waning Crescent, 2% visible
METAR KBJC 310045Z 02008KT 20SM BKN120 24/08 A3028 RMK CB ALQDS
Pressure 30.28 in
Visibility 20.0 miles
Clouds Mostly Cloudy 12000 ft
Heat Index 78 °F
Dew Point 52 °F
Humidity 43%
Rainfall Not available.
Snow Depth Not available.
6:27 AM 7:34 PM
Waning Crescent, 2% visible
METAR KBJC 310045Z 02008KT 20SM BKN120 24/08 A3028 RMK CB ALQDS

10-Day Weather Forecast

Almanac

Astronomy

Aug. 30, 2016 Rise Set
Actual Time
Civil Twilight
Nautical Twilight
Astronomical Twilight
Moon
Length of Visible Light
Length of Day
Tomorrow will be .
, % of the Moon is Illuminated

Today's Extremes

State Highs State Lows

Community

WunderPhotos

Upload Photos

1,935,964 photos uploaded!

WunderBlog® & News

Nearby

Air Quality

  Air Quality AQ Index Pollutant
Not available.

Snow Depth

Station Depth Elevation

Earthquake Activity

City Distance Mag. Time & Date
Minimum magnitude displayed is 2.5.

Coastal Water Temperatures

Place Temperature

Stations

Nearby Weather Stations

Station Location Temp. Windchill Dew Point Humidity Wind Precip. Elev Updated Type
                   

Watches & Warnings

There are currently no watches in effect.